Time;durP1;ratioP1;P1;durP2;ratioP2;P2;SDS_P1;SDS_P2;PMS_P1;PMS_P2;Temp;Humidity;BMP_temperature;BMP_pressure;BME280_temperature;BME280_humidity;BME280_pressure;Samples;Min_cycle;Max_cycle;Signal;HPM_P1;HPM_P2
2022/11/13 00:01:24;;;;;;;62.63;36.70;;;5.70;99.90;;;;;;4993278;28;20550;-60
2022/11/13 00:03:54;;;;;;;65.53;37.40;;;5.70;99.90;;;;;;4972595;28;20737;-60
2022/11/13 00:06:22;;;;;;;118.13;43.07;;;5.70;99.90;;;;;;4987985;28;20206;-60
2022/11/13 00:08:54;;;;;;;107.73;42.07;;;5.70;99.90;;;;;;4975739;28;20610;-60
2022/11/13 00:11:23;;;;;;;93.70;40.60;;;5.70;99.90;;;;;;4980610;28;20211;-60
2022/11/13 00:13:52;;;;;;;104.03;41.57;;;5.80;99.90;;;;;;4974961;28;20196;-60
2022/11/13 00:16:21;;;;;;;120.37;44.13;;;5.70;99.90;;;;;;4976605;28;20615;-60
2022/11/13 00:18:51;;;;;;;89.93;39.77;;;5.70;99.90;;;;;;4975660;28;20235;-60
2022/11/13 00:21:24;;;;;;;84.43;40.80;;;5.70;99.90;;;;;;4981969;28;20249;-60
2022/11/13 00:23:54;;;;;;;87.87;41.77;;;5.70;99.90;;;;;;4979067;28;20634;-60
2022/11/13 00:26:24;;;;;;;93.07;39.07;;;5.70;99.90;;;;;;4974566;28;20219;-60
2022/11/13 00:28:56;;;;;;;79.37;39.67;;;5.70;99.90;;;;;;4979861;28;20200;-60
2022/11/13 00:31:25;;;;;;;94.07;41.53;;;5.70;99.90;;;;;;4974073;28;20225;-60
2022/11/13 00:33:54;;;;;;;84.60;42.23;;;5.70;99.90;;;;;;4979428;28;20207;-60
2022/11/13 00:36:42;;;;;;;72.63;38.57;;;5.70;99.90;;;;;;4973338;28;20218;-60
2022/11/13 00:39:11;;;;;;;93.10;41.27;;;5.70;99.90;;;;;;4979482;28;20201;-60
2022/11/13 00:41:39;;;;;;;70.87;36.47;;;5.70;99.90;;;;;;4974121;28;20194;-60
2022/11/13 00:44:09;;;;;;;82.60;38.87;;;5.60;99.90;;;;;;4979910;28;20639;-60
2022/11/13 00:46:37;;;;;;;65.13;35.60;;;5.60;99.90;;;;;;4972711;28;20195;-60
2022/11/13 00:49:06;;;;;;;76.43;40.00;;;5.60;99.90;;;;;;4968727;28;20195;-60
2022/11/13 00:51:34;;;;;;;64.40;37.60;;;5.60;99.90;;;;;;5002752;28;20219;-60
2022/11/13 00:54:03;;;;;;;68.30;38.07;;;5.50;99.90;;;;;;4978173;28;20209;-60
2022/11/13 00:56:31;;;;;;;124.90;46.90;;;5.50;99.90;;;;;;4985768;28;20191;-60
2022/11/13 00:59:00;;;;;;;152.20;48.63;;;5.60;99.90;;;;;;4975914;28;20580;-60
2022/11/13 01:01:30;;;;;;;97.03;43.70;;;5.70;99.90;;;;;;4976356;28;20184;-60
2022/11/13 01:03:58;;;;;;;101.10;44.23;;;5.60;99.90;;;;;;4975667;28;20203;-60
2022/11/13 01:06:28;;;;;;;89.43;43.83;;;5.60;99.90;;;;;;5013976;28;20198;-60
2022/11/13 01:08:59;;;;;;;91.60;46.70;;;5.60;99.90;;;;;;5009656;28;20202;-60
2022/11/13 01:11:30;;;;;;;80.77;42.30;;;5.60;99.90;;;;;;4975500;28;20215;-60
2022/11/13 01:13:58;;;;;;;122.27;46.20;;;5.60;99.90;;;;;;4978231;28;20225;-60
2022/11/13 01:16:28;;;;;;;134.97;49.87;;;5.60;99.90;;;;;;5001184;28;20201;-60
2022/11/13 01:18:57;;;;;;;107.53;46.43;;;5.60;99.90;;;;;;4972274;28;20233;-60
2022/11/13 01:21:27;;;;;;;87.27;44.17;;;5.60;99.90;;;;;;4984669;28;20194;-60
2022/11/13 01:23:56;;;;;;;107.23;46.60;;;5.60;99.90;;;;;;4997501;28;20206;-60
2022/11/13 01:26:26;;;;;;;107.80;46.33;;;5.60;99.90;;;;;;5053717;28;20191;-60
2022/11/13 01:28:56;;;;;;;89.07;43.97;;;5.60;99.90;;;;;;4973107;28;20282;-60
2022/11/13 01:31:26;;;;;;;98.03;44.43;;;5.50;99.90;;;;;;4981530;28;20215;-60
2022/11/13 01:33:55;;;;;;;92.30;42.63;;;5.50;99.90;;;;;;4983421;28;20630;-60
2022/11/13 01:36:27;;;;;;;100.63;43.93;;;5.50;99.90;;;;;;4998921;28;20222;-60
2022/11/13 01:38:56;;;;;;;97.37;46.70;;;5.50;99.90;;;;;;4972249;28;20203;-60
2022/11/13 01:41:27;;;;;;;92.27;43.63;;;5.50;99.90;;;;;;4976976;28;20188;-60
2022/11/13 01:43:56;;;;;;;87.97;44.07;;;5.40;99.90;;;;;;5011282;28;20195;-60
2022/11/13 01:46:26;;;;;;;72.30;39.77;;;5.40;99.90;;;;;;4974406;28;20922;-60
2022/11/13 01:49:12;;;;;;;83.50;42.13;;;5.40;99.90;;;;;;4965278;28;20204;-60
2022/11/13 01:51:46;;;;;;;82.77;42.60;;;5.40;99.90;;;;;;4979534;28;20205;-60
2022/11/13 01:54:18;;;;;;;100.53;45.17;;;5.30;99.90;;;;;;4975674;28;20206;-60
2022/11/13 01:56:46;;;;;;;80.63;42.90;;;5.30;99.90;;;;;;4998848;28;20192;-60
2022/11/13 01:59:18;;;;;;;95.07;44.27;;;5.30;99.90;;;;;;4966827;28;20214;-60
2022/11/13 02:01:47;;;;;;;88.50;42.63;;;5.30;99.90;;;;;;4981785;28;20205;-60
2022/11/13 02:04:15;;;;;;;78.27;39.93;;;5.30;99.90;;;;;;4972108;28;20688;-60
2022/11/13 02:06:49;;;;;;;70.97;38.60;;;5.30;99.90;;;;;;4976372;28;20195;-60
2022/11/13 02:09:21;;;;;;;77.67;41.87;;;5.20;99.90;;;;;;4976577;28;20208;-60
2022/11/13 02:11:50;;;;;;;69.87;39.40;;;5.10;99.90;;;;;;4973974;28;20227;-60
2022/11/13 02:14:20;;;;;;;64.67;38.73;;;5.10;99.90;;;;;;4972367;28;20203;-60
2022/11/13 02:16:52;;;;;;;73.80;38.13;;;5.00;99.90;;;;;;4974447;28;20619;-60
2022/11/13 02:19:26;;;;;;;72.27;39.07;;;5.00;99.90;;;;;;4969117;28;20227;-60
2022/11/13 02:22:04;;;;;;;80.30;40.07;;;4.90;99.90;;;;;;4980848;28;20683;-60
2022/11/13 02:24:38;;;;;;;66.00;37.30;;;4.90;99.90;;;;;;4977862;28;20696;-60
2022/11/13 02:27:17;;;;;;;82.00;38.20;;;4.80;99.90;;;;;;4971335;28;20207;-60
2022/11/13 02:29:46;;;;;;;71.07;36.50;;;4.80;99.90;;;;;;4974057;28;20198;-60
2022/11/13 02:32:14;;;;;;;73.43;33.90;;;4.80;99.90;;;;;;4975385;28;20206;-60
2022/11/13 02:34:42;;;;;;;77.47;35.03;;;4.70;99.90;;;;;;4977119;28;20199;-60
2022/11/13 02:37:11;;;;;;;68.43;34.73;;;4.70;99.90;;;;;;4974821;28;20199;-60
2022/11/13 02:39:41;;;;;;;53.13;29.40;;;4.60;99.90;;;;;;4975578;28;20195;-60
2022/11/13 02:42:09;;;;;;;58.03;29.60;;;4.70;99.90;;;;;;4966658;28;20772;-60
2022/11/13 02:44:38;;;;;;;55.47;31.23;;;4.70;99.90;;;;;;4975991;28;20202;-60
2022/11/13 02:47:06;;;;;;;57.47;29.03;;;4.70;99.90;;;;;;4968481;28;20194;-60
2022/11/13 02:49:34;;;;;;;50.53;29.17;;;4.70;99.90;;;;;;4979876;28;20203;-60
2022/11/13 02:52:03;;;;;;;56.23;30.93;;;4.70;99.90;;;;;;4980890;28;20210;-60
2022/11/13 02:54:31;;;;;;;64.60;32.47;;;4.70;99.90;;;;;;4976988;28;20187;-60
2022/11/13 02:57:00;;;;;;;79.13;38.10;;;4.70;99.90;;;;;;4979257;28;20206;-60
2022/11/13 02:59:29;;;;;;;65.10;36.87;;;4.70;99.90;;;;;;4984243;28;20206;-60
2022/11/13 03:01:57;;;;;;;70.90;36.67;;;4.70;99.90;;;;;;4971379;28;20199;-60
2022/11/13 03:04:26;;;;;;;58.87;35.57;;;4.70;99.90;;;;;;4973349;28;20207;-60
2022/11/13 03:07:14;;;;;;;54.77;33.63;;;4.60;99.90;;;;;;4983821;28;20199;-60
2022/11/13 03:09:43;;;;;;;53.97;30.87;;;4.60;99.90;;;;;;4980134;28;20285;-60
2022/11/13 03:12:13;;;;;;;61.47;33.90;;;4.60;99.90;;;;;;4975502;28;20219;-60
2022/11/13 03:14:41;;;;;;;57.67;33.57;;;4.50;99.90;;;;;;4982590;28;20743;-62
2022/11/13 03:17:09;;;;;;;68.83;35.80;;;4.50;99.90;;;;;;4979091;28;20203;-59
2022/11/13 03:19:39;;;;;;;74.87;36.47;;;4.50;99.90;;;;;;4970959;28;20246;-59
2022/11/13 03:22:07;;;;;;;61.50;34.53;;;4.50;99.90;;;;;;4985722;28;20199;-59
2022/11/13 03:24:35;;;;;;;62.57;34.70;;;4.40;99.90;;;;;;4987982;28;20195;-59
2022/11/13 03:27:07;;;;;;;58.27;32.87;;;4.40;99.90;;;;;;4976192;28;20202;-59
2022/11/13 03:29:37;;;;;;;61.40;32.47;;;4.40;99.90;;;;;;4976208;28;20203;-59
2022/11/13 03:32:06;;;;;;;79.33;36.83;;;4.40;99.90;;;;;;4980553;28;20207;-59
2022/11/13 03:34:34;;;;;;;63.57;34.73;;;4.40;99.90;;;;;;4968987;28;20571;-59
2022/11/13 03:37:02;;;;;;;65.90;35.63;;;4.40;99.90;;;;;;4976278;28;20191;-59
2022/11/13 03:39:31;;;;;;;65.70;37.07;;;4.40;99.90;;;;;;4983347;28;20199;-59
2022/11/13 03:41:59;;;;;;;72.10;38.57;;;4.40;99.90;;;;;;4975876;28;20716;-59
2022/11/13 03:44:30;;;;;;;61.67;35.30;;;4.40;99.90;;;;;;4988838;28;20188;-59
2022/11/13 03:47:00;;;;;;;63.13;35.13;;;4.40;99.90;;;;;;4980088;28;20210;-59
2022/11/13 03:49:28;;;;;;;59.67;34.73;;;4.30;99.90;;;;;;4976771;28;20736;-59
2022/11/13 03:51:56;;;;;;;63.80;34.43;;;4.30;99.90;;;;;;4980680;28;20752;-59
2022/11/13 03:54:25;;;;;;;57.37;33.00;;;4.20;99.90;;;;;;4972448;28;20677;-59
2022/11/13 03:56:53;;;;;;;58.53;33.27;;;4.20;99.90;;;;;;4991596;28;20203;-59
2022/11/13 03:59:21;;;;;;;55.93;31.90;;;4.10;99.90;;;;;;4980574;28;20660;-59
2022/11/13 04:01:50;;;;;;;58.40;32.17;;;4.10;99.90;;;;;;5013051;28;20206;-59
2022/11/13 04:04:20;;;;;;;62.23;33.20;;;4.10;99.90;;;;;;4973831;28;20290;-62
2022/11/13 04:06:49;;;;;;;55.70;32.63;;;4.00;99.90;;;;;;4973387;28;20654;-62
2022/11/13 04:09:18;;;;;;;47.40;29.77;;;4.00;99.90;;;;;;4994900;28;20202;-59
2022/11/13 04:11:46;;;;;;;51.57;30.43;;;3.90;99.90;;;;;;4978963;28;20215;-59
2022/11/13 04:14:15;;;;;;;44.47;28.23;;;3.90;99.90;;;;;;5008421;28;20246;-59
2022/11/13 04:16:44;;;;;;;43.93;29.30;;;3.90;99.90;;;;;;4985441;28;20205;-59
2022/11/13 04:19:13;;;;;;;44.93;27.67;;;3.90;99.90;;;;;;4969221;28;20239;-59
2022/11/13 04:21:43;;;;;;;42.60;27.20;;;4.00;99.90;;;;;;4981521;28;20195;-61
2022/11/13 04:24:11;;;;;;;44.83;28.00;;;4.00;99.90;;;;;;4973636;28;20199;-59
2022/11/13 04:26:39;;;;;;;39.73;26.83;;;4.00;99.90;;;;;;4977219;28;20203;-59
2022/11/13 04:29:08;;;;;;;42.23;26.00;;;4.00;99.90;;;;;;4972657;28;20274;-59
2022/11/13 04:31:36;;;;;;;39.27;25.90;;;3.90;99.90;;;;;;4980410;28;20196;-59
2022/11/13 04:34:05;;;;;;;41.17;26.60;;;4.00;99.90;;;;;;4967332;28;20195;-59
2022/11/13 04:36:33;;;;;;;42.63;26.50;;;4.00;99.90;;;;;;4974829;28;20226;-59
2022/11/13 04:39:03;;;;;;;36.90;24.90;;;4.00;99.90;;;;;;4975413;28;21000;-60
2022/11/13 04:44:22;;;;;;;38.90;24.90;;;4.10;99.90;;;;;;5002087;28;20183;-60
2022/11/13 04:46:51;;;;;;;43.80;27.43;;;4.10;99.90;;;;;;4973435;28;20820;-60
2022/11/13 04:49:19;;;;;;;40.77;27.03;;;4.10;99.90;;;;;;4971296;28;20466;-60
2022/11/13 04:51:47;;;;;;;45.93;29.23;;;4.10;99.90;;;;;;4967132;28;20800;-60
2022/11/13 04:54:17;;;;;;;44.00;29.80;;;4.20;99.90;;;;;;4976537;28;20202;-60
2022/11/13 04:56:51;;;;;;;45.17;30.13;;;4.20;99.90;;;;;;4975274;28;20209;-60
2022/11/13 04:59:20;;;;;;;46.40;29.23;;;4.10;99.90;;;;;;4977790;28;21972;-60
2022/11/13 05:01:49;;;;;;;45.73;30.77;;;4.20;99.90;;;;;;4994393;28;20196;-60
2022/11/13 05:04:18;;;;;;;46.60;30.60;;;4.10;99.90;;;;;;5009422;28;20190;-60
2022/11/13 05:06:47;;;;;;;49.07;31.17;;;4.20;99.90;;;;;;4980386;28;20218;-60
2022/11/13 05:09:16;;;;;;;49.17;31.67;;;4.20;99.90;;;;;;4978113;28;20233;-60
2022/11/13 05:11:45;;;;;;;51.13;29.70;;;4.20;99.90;;;;;;4978416;28;20931;-60
2022/11/13 05:14:14;;;;;;;47.70;32.30;;;4.20;99.90;;;;;;5005247;28;20220;-60
2022/11/13 05:16:42;;;;;;;45.27;30.27;;;4.30;99.90;;;;;;4980887;28;20191;-60
2022/11/13 05:19:10;;;;;;;53.10;32.57;;;4.30;99.90;;;;;;4979253;28;20234;-60
2022/11/13 05:21:40;;;;;;;47.87;31.87;;;4.30;99.90;;;;;;4983975;28;20195;-60
2022/11/13 05:24:11;;;;;;;50.40;31.80;;;4.20;99.90;;;;;;4979429;28;20195;-60
2022/11/13 05:26:41;;;;;;;47.87;29.27;;;4.20;99.90;;;;;;4975576;28;20222;-60
2022/11/13 05:29:09;;;;;;;50.30;31.57;;;4.20;99.90;;;;;;4998410;28;20199;-60
2022/11/13 05:31:37;;;;;;;50.53;31.30;;;4.10;99.90;;;;;;4998258;28;20207;-60
2022/11/13 05:34:07;;;;;;;48.17;30.43;;;4.10;99.90;;;;;;4975763;28;20211;-60
2022/11/13 05:36:36;;;;;;;63.70;31.00;;;4.10;99.90;;;;;;4976137;28;20191;-60
2022/11/13 05:39:06;;;;;;;68.60;31.33;;;4.10;99.90;;;;;;4974456;28;20187;-60
2022/11/13 05:41:35;;;;;;;58.57;29.77;;;4.10;99.90;;;;;;4974672;28;20191;-60
2022/11/13 05:44:05;;;;;;;60.37;31.20;;;4.10;99.90;;;;;;4985161;28;20195;-60
2022/11/13 05:46:33;;;;;;;54.23;30.10;;;4.10;99.90;;;;;;4973603;28;20199;-60
2022/11/13 05:49:02;;;;;;;54.03;30.43;;;4.10;99.90;;;;;;4972241;28;20191;-60
2022/11/13 05:51:33;;;;;;;59.57;30.73;;;4.10;99.90;;;;;;4978713;28;20234;-60
2022/11/13 05:54:03;;;;;;;50.97;29.17;;;4.10;99.90;;;;;;4969765;28;20215;-60
2022/11/13 05:56:33;;;;;;;58.93;30.17;;;4.00;99.90;;;;;;4974583;28;20197;-60
2022/11/13 05:59:03;;;;;;;53.83;29.80;;;4.00;99.90;;;;;;4980722;28;20210;-60
2022/11/13 06:01:37;;;;;;;83.37;35.43;;;4.00;99.90;;;;;;4978812;28;20216;-60
2022/11/13 06:04:08;;;;;;;68.30;33.43;;;4.00;99.90;;;;;;4977329;28;20672;-60
2022/11/13 06:06:37;;;;;;;72.63;36.53;;;4.00;99.90;;;;;;4976995;28;20538;-60
2022/11/13 06:09:06;;;;;;;57.90;33.50;;;4.00;99.90;;;;;;4983194;28;20665;-60
2022/11/13 06:11:36;;;;;;;52.13;30.73;;;4.00;99.90;;;;;;4978879;28;20217;-60
2022/11/13 06:14:05;;;;;;;53.73;30.73;;;4.00;99.90;;;;;;5070096;28;20203;-60
2022/11/13 06:16:37;;;;;;;57.07;30.93;;;3.90;99.90;;;;;;4976946;28;21151;-60
2022/11/13 06:19:07;;;;;;;61.77;32.43;;;3.90;99.90;;;;;;4971087;28;20223;-60
2022/11/13 06:21:38;;;;;;;55.70;32.27;;;3.90;99.90;;;;;;4984605;28;20199;-60
2022/11/13 06:24:07;;;;;;;57.33;33.20;;;3.90;99.90;;;;;;4982285;28;20214;-60
2022/11/13 06:26:37;;;;;;;59.57;33.40;;;4.00;99.90;;;;;;4978561;28;20191;-60
2022/11/13 06:29:07;;;;;;;67.60;32.77;;;4.00;99.90;;;;;;4976836;28;20227;-60
2022/11/13 06:31:37;;;;;;;70.00;32.70;;;4.00;99.90;;;;;;4975391;28;20194;-60
2022/11/13 06:34:06;;;;;;;78.43;32.87;;;3.90;99.90;;;;;;4979793;28;20216;-60
2022/11/13 06:36:36;;;;;;;85.30;33.67;;;3.90;99.90;;;;;;4984042;28;20199;-60
2022/11/13 06:39:07;;;;;;;65.53;32.10;;;3.90;99.90;;;;;;4995220;28;20355;-60
2022/11/13 06:41:38;;;;;;;58.23;31.47;;;3.80;99.90;;;;;;4982287;28;20227;-60
2022/11/13 06:44:07;;;;;;;57.40;31.63;;;3.80;99.90;;;;;;4979379;28;20193;-60
2022/11/13 06:46:37;;;;;;;55.60;30.67;;;3.80;99.90;;;;;;4993688;28;20195;-60
2022/11/13 06:49:05;;;;;;;67.83;30.17;;;3.70;99.90;;;;;;4971613;28;20207;-60
2022/11/13 06:51:34;;;;;;;62.87;30.80;;;3.60;99.90;;;;;;4962688;28;20206;-60
2022/11/13 06:54:02;;;;;;;47.97;29.23;;;3.60;99.90;;;;;;4981156;28;20211;-60
2022/11/13 06:56:32;;;;;;;48.43;28.87;;;3.60;99.90;;;;;;4976163;28;20214;-60
2022/11/13 06:59:00;;;;;;;68.93;31.50;;;3.60;99.90;;;;;;4978731;28;20199;-60
2022/11/13 07:01:33;;;;;;;55.30;29.90;;;3.50;99.90;;;;;;4979404;28;20199;-60
2022/11/13 07:04:04;;;;;;;53.00;30.23;;;3.50;99.90;;;;;;4976516;28;20309;-60
2022/11/13 07:06:32;;;;;;;62.93;35.20;;;3.50;99.90;;;;;;4981840;28;20195;-60
2022/11/13 07:09:07;;;;;;;71.80;36.40;;;3.50;99.90;;;;;;4972173;28;20256;-60
2022/11/13 07:11:36;;;;;;;50.50;31.30;;;3.50;99.90;;;;;;5005787;28;20223;-60
2022/11/13 07:14:06;;;;;;;54.50;29.70;;;3.60;99.90;;;;;;4988730;28;20231;-60
2022/11/13 07:16:34;;;;;;;65.57;32.27;;;3.60;99.90;;;;;;4976968;28;20202;-60
2022/11/13 07:19:24;;;;;;;59.80;32.07;;;3.60;99.90;;;;;;4989006;28;20242;-59
2022/11/13 07:21:53;;;;;;;62.93;30.73;;;3.60;99.90;;;;;;4971971;28;20200;-60
2022/11/13 07:24:21;;;;;;;50.50;30.07;;;3.50;99.90;;;;;;4981165;28;20653;-60
2022/11/13 07:26:50;;;;;;;63.90;29.93;;;3.50;99.90;;;;;;4974314;28;20210;-60
2022/11/13 07:29:19;;;;;;;53.27;28.60;;;3.60;99.90;;;;;;4973276;28;20669;-60
2022/11/13 07:31:47;;;;;;;54.87;30.67;;;3.60;99.90;;;;;;4979795;28;20187;-60
2022/11/13 07:34:15;;;;;;;54.93;29.50;;;3.60;99.90;;;;;;4969013;28;20234;-60
2022/11/13 07:36:47;;;;;;;52.43;29.73;;;3.60;99.90;;;;;;4972815;28;20238;-60
2022/11/13 07:39:16;;;;;;;49.60;28.33;;;3.70;99.90;;;;;;4967035;28;20200;-60
2022/11/13 07:41:44;;;;;;;46.93;28.60;;;3.70;99.90;;;;;;4979722;28;20327;-60
2022/11/13 07:44:12;;;;;;;53.23;30.13;;;3.70;99.90;;;;;;4977340;28;20222;-60
2022/11/13 07:47:01;;;;;;;48.07;27.87;;;3.70;99.90;;;;;;4973316;28;20789;-60
2022/11/13 07:49:29;;;;;;;45.07;28.20;;;3.70;99.90;;;;;;4981462;28;20218;-60
2022/11/13 07:51:59;;;;;;;42.70;28.17;;;3.80;99.90;;;;;;4978691;28;20202;-60
2022/11/13 07:54:27;;;;;;;51.20;29.97;;;3.90;99.90;;;;;;4973764;28;20258;-60
2022/11/13 07:56:56;;;;;;;45.70;28.80;;;3.90;99.90;;;;;;4977801;28;20206;-60
2022/11/13 07:59:24;;;;;;;49.87;30.40;;;4.00;99.90;;;;;;4971178;28;20199;-60
2022/11/13 08:01:52;;;;;;;49.83;29.77;;;4.00;99.90;;;;;;4978791;28;20210;-60
2022/11/13 08:04:21;;;;;;;47.53;30.63;;;4.00;99.90;;;;;;4977339;28;20646;-60
2022/11/13 08:06:49;;;;;;;47.10;28.97;;;4.00;99.90;;;;;;4972259;28;20196;-60
2022/11/13 08:09:19;;;;;;;48.33;29.50;;;4.10;99.90;;;;;;4974745;28;20251;-60
2022/11/13 08:11:47;;;;;;;49.30;30.67;;;4.10;99.90;;;;;;4974330;28;20215;-60
2022/11/13 08:14:16;;;;;;;44.70;27.83;;;4.10;99.90;;;;;;4976828;28;20296;-60
2022/11/13 08:16:44;;;;;;;47.03;29.33;;;4.20;99.90;;;;;;5012172;28;20210;-60
2022/11/13 08:19:13;;;;;;;47.00;30.13;;;4.20;99.90;;;;;;4972174;28;20227;-60
2022/11/13 08:21:41;;;;;;;60.07;33.10;;;4.30;99.90;;;;;;4976830;28;20630;-60
2022/11/13 08:24:10;;;;;;;57.17;34.10;;;4.40;99.90;;;;;;4999110;27;20187;-60
2022/11/13 08:26:40;;;;;;;88.13;46.17;;;4.40;99.90;;;;;;4982666;28;20201;-60
2022/11/13 08:29:08;;;;;;;71.43;41.03;;;4.50;99.90;;;;;;4979472;28;20282;-60
2022/11/13 08:31:37;;;;;;;68.23;39.17;;;4.60;99.90;;;;;;4989718;28;20203;-60
2022/11/13 08:34:05;;;;;;;75.13;44.43;;;4.70;99.90;;;;;;4986700;28;20999;-60
2022/11/13 08:36:34;;;;;;;68.30;41.33;;;4.70;99.90;;;;;;4977917;28;20895;-60
2022/11/13 08:39:03;;;;;;;68.40;39.57;;;4.80;99.90;;;;;;5001237;28;20654;-60
2022/11/13 08:41:31;;;;;;;60.07;36.60;;;4.90;99.90;;;;;;4975898;28;20203;-60
2022/11/13 08:44:01;;;;;;;57.40;34.90;;;5.00;99.90;;;;;;4973763;28;20205;-60
2022/11/13 08:46:29;;;;;;;56.50;35.03;;;5.10;99.90;;;;;;4969971;28;20804;-60
2022/11/13 08:48:57;;;;;;;60.60;35.93;;;5.20;99.90;;;;;;4969215;28;20204;-60
2022/11/13 08:51:26;;;;;;;55.47;35.90;;;5.30;99.90;;;;;;4986254;28;20208;-60
2022/11/13 08:53:54;;;;;;;54.30;34.43;;;5.40;99.90;;;;;;5007715;28;20286;-60
2022/11/13 08:56:24;;;;;;;50.30;33.53;;;5.60;99.90;;;;;;4978166;28;20201;-60
2022/11/13 08:58:52;;;;;;;57.43;36.47;;;5.80;99.90;;;;;;4993525;28;20203;-60
2022/11/13 09:01:24;;;;;;;71.03;43.63;;;6.00;99.90;;;;;;4973302;28;20217;-60
2022/11/13 09:03:52;;;;;;;65.67;39.40;;;6.20;99.90;;;;;;4980943;28;20195;-60
2022/11/13 09:06:21;;;;;;;56.27;36.60;;;6.30;99.90;;;;;;4983835;28;20975;-60
2022/11/13 09:08:50;;;;;;;58.30;36.63;;;6.50;99.90;;;;;;4978147;28;20557;-60
2022/11/13 09:11:18;;;;;;;58.00;37.37;;;6.70;99.90;;;;;;4975436;28;20223;-60
2022/11/13 09:13:46;;;;;;;57.17;37.33;;;7.00;99.90;;;;;;4978288;28;20199;-60
2022/11/13 09:16:20;;;;;;;54.60;34.80;;;7.30;99.90;;;;;;4974683;28;20193;-60
2022/11/13 09:18:51;;;;;;;54.57;34.70;;;7.50;99.90;;;;;;4976266;28;20236;-60
2022/11/13 09:21:19;;;;;;;54.73;35.17;;;7.70;99.90;;;;;;4970989;28;20199;-60
2022/11/13 09:23:48;;;;;;;53.17;33.67;;;7.80;99.90;;;;;;4990034;28;20790;-60
2022/11/13 09:26:16;;;;;;;46.13;32.33;;;7.90;99.90;;;;;;4974791;28;20895;-60
2022/11/13 09:28:45;;;;;;;43.90;30.47;;;8.00;99.90;;;;;;4975720;28;20203;-60
2022/11/13 09:31:13;;;;;;;45.73;29.97;;;8.20;99.90;;;;;;4970107;28;20899;-60
2022/11/13 09:33:41;;;;;;;37.23;25.30;;;8.40;99.90;;;;;;4975938;28;20872;-60
2022/11/13 09:36:16;;;;;;;33.37;24.53;;;8.50;99.90;;;;;;4966418;28;20203;-60
2022/11/13 09:38:44;;;;;;;35.93;25.17;;;8.70;99.90;;;;;;4970274;28;20546;-60
2022/11/13 09:41:21;;;;;;;31.90;21.60;;;9.00;99.90;;;;;;4971284;28;20700;-60
2022/11/13 09:43:52;;;;;;;27.30;19.90;;;9.30;99.90;;;;;;4970719;28;20290;-60
2022/11/13 09:46:36;;;;;;;24.23;18.30;;;9.60;99.90;;;;;;4969960;28;20199;-60
2022/11/13 09:49:15;;;;;;;24.60;18.10;;;9.80;99.90;;;;;;4977813;28;20295;-60
2022/11/13 09:51:51;;;;;;;33.83;24.47;;;10.10;99.90;;;;;;4977497;28;20202;-60
2022/11/13 09:54:20;;;;;;;22.00;15.47;;;10.40;99.90;;;;;;4971960;28;20191;-60
2022/11/13 09:56:56;;;;;;;37.67;28.27;;;10.50;99.90;;;;;;4974707;28;20226;-61
2022/11/13 09:59:30;;;;;;;19.93;15.10;;;10.70;99.90;;;;;;4970929;28;20203;-61
2022/11/13 10:02:10;;;;;;;20.53;14.90;;;10.90;99.90;;;;;;4982546;28;20198;-60
2022/11/13 10:04:53;;;;;;;19.80;15.40;;;11.00;99.90;;;;;;4974864;28;20199;-60
2022/11/13 10:07:34;;;;;;;19.67;15.20;;;11.00;99.90;;;;;;4984979;28;20203;-61
2022/11/13 10:10:27;;;;;;;20.00;15.13;;;11.10;99.90;;;;;;4973296;28;20210;-61
2022/11/13 10:12:58;;;;;;;18.27;14.83;;;10.80;99.90;;;;;;4981808;28;20223;-61
2022/11/13 10:15:27;;;;;;;21.60;15.73;;;10.50;99.90;;;;;;4969304;28;20222;-60
2022/11/13 10:18:00;;;;;;;22.40;17.13;;;10.30;99.90;;;;;;4965776;28;20192;-60
2022/11/13 10:20:34;;;;;;;24.57;17.17;;;10.10;99.90;;;;;;4970118;28;20677;-59
2022/11/13 10:23:09;;;;;;;24.33;17.23;;;9.90;99.90;;;;;;4973095;28;20802;-62
2022/11/13 10:25:40;;;;;;;28.63;17.30;;;9.80;99.90;;;;;;4977896;28;20190;-59
2022/11/13 10:28:14;;;;;;;27.60;20.63;;;9.80;99.90;;;;;;4975787;28;20190;-60
2022/11/13 10:31:03;;;;;;;24.27;16.40;;;9.80;99.90;;;;;;4996089;28;20210;-60
2022/11/13 10:33:31;;;;;;;20.67;16.03;;;9.70;99.90;;;;;;4972594;28;20226;-60
2022/11/13 10:36:08;;;;;;;24.43;17.83;;;9.70;99.90;;;;;;4977003;28;20241;-60
2022/11/13 10:38:46;;;;;;;24.23;17.00;;;9.70;99.90;;;;;;4980857;28;20800;-60
2022/11/13 10:41:17;;;;;;;28.30;19.70;;;9.70;99.90;;;;;;4975104;28;20210;-60
2022/11/13 10:43:53;;;;;;;22.33;18.37;;;9.90;99.90;;;;;;4979001;28;20199;-60
2022/11/13 10:46:23;;;;;;;22.07;16.73;;;10.00;99.90;;;;;;4978157;28;20198;-60
2022/11/13 10:48:52;;;;;;;26.53;17.93;;;10.10;99.90;;;;;;4977224;28;20278;-60
2022/11/13 10:51:24;;;;;;;23.07;17.30;;;10.30;99.90;;;;;;4979776;28;20634;-60
2022/11/13 10:53:55;;;;;;;21.90;15.50;;;10.50;99.90;;;;;;4986514;28;20227;-60
2022/11/13 10:56:30;;;;;;;23.10;15.70;;;10.50;99.90;;;;;;4982982;28;20597;-60
2022/11/13 10:59:11;;;;;;;20.17;15.60;;;10.50;99.90;;;;;;4976529;28;20203;-60
2022/11/13 11:01:41;;;;;;;23.40;14.73;;;10.60;99.90;;;;;;4982168;28;20222;-60
2022/11/13 11:04:14;;;;;;;20.80;14.77;;;10.80;99.90;;;;;;4976771;28;20190;-60
2022/11/13 11:06:42;;;;;;;15.53;13.37;;;11.00;99.90;;;;;;5011123;28;20217;-60
2022/11/13 11:09:33;;;;;;;24.43;13.97;;;11.40;99.90;;;;;;4983190;28;20208;-60
2022/11/13 11:12:17;;;;;;;17.87;13.63;;;11.70;99.90;;;;;;4981683;28;20222;-60
2022/11/13 11:14:59;;;;;;;17.53;13.07;;;11.90;99.90;;;;;;4970095;28;20195;-60
2022/11/13 11:17:33;;;;;;;17.60;13.93;;;12.10;99.90;;;;;;4952036;28;20573;-60
2022/11/13 11:20:06;;;;;;;18.10;13.10;;;12.30;99.90;;;;;;4977206;28;20235;-60
2022/11/13 11:22:37;;;;;;;20.30;14.70;;;12.30;99.90;;;;;;4990448;28;20196;-60
2022/11/13 11:25:13;;;;;;;18.00;13.80;;;12.10;99.90;;;;;;4992871;28;20847;-60
2022/11/13 11:27:46;;;;;;;14.80;12.63;;;12.10;99.90;;;;;;4978407;28;20264;-60
2022/11/13 11:30:20;;;;;;;16.50;12.73;;;12.10;99.90;;;;;;4977294;28;20197;-60
2022/11/13 11:32:56;;;;;;;23.60;19.43;;;12.10;99.90;;;;;;4980627;28;20824;-60
2022/11/13 11:35:32;;;;;;;19.83;14.63;;;12.30;99.90;;;;;;4983439;28;20211;-61
2022/11/13 11:38:05;;;;;;;16.40;12.07;;;12.60;99.90;;;;;;4977567;28;20851;-61
2022/11/13 11:40:41;;;;;;;19.97;11.93;;;12.90;99.90;;;;;;5002951;28;20195;-61
2022/11/13 11:43:19;;;;;;;13.70;10.50;;;13.20;99.90;;;;;;4978111;28;20214;-60
2022/11/13 11:45:48;;;;;;;12.33;10.00;;;13.30;99.90;;;;;;4979589;28;20187;-61
2022/11/13 11:48:18;;;;;;;13.33;10.50;;;13.20;99.90;;;;;;4977096;28;20214;-60
2022/11/13 11:50:51;;;;;;;14.00;9.67;;;13.00;99.90;;;;;;4979911;28;20187;-61
2022/11/13 11:53:33;;;;;;;12.27;9.97;;;13.10;99.90;;;;;;4980677;28;20203;-61
2022/11/13 11:56:18;;;;;;;18.33;11.47;;;12.80;99.90;;;;;;4971438;28;20225;-61
2022/11/13 11:59:07;;;;;;;13.47;10.80;;;12.90;99.90;;;;;;4971929;28;20280;-61
2022/11/13 12:01:50;;;;;;;11.60;9.13;;;12.80;99.90;;;;;;5002653;28;20736;-61
2022/11/13 12:04:33;;;;;;;11.47;9.60;;;12.90;99.90;;;;;;5001735;28;20195;-61
2022/11/13 12:07:16;;;;;;;11.73;10.07;;;13.00;99.90;;;;;;4973608;28;20533;-61
2022/11/13 12:09:53;;;;;;;11.37;9.27;;;13.00;99.90;;;;;;4982244;28;20198;-61
2022/11/13 12:12:35;;;;;;;9.80;8.43;;;13.00;99.90;;;;;;4982566;28;20237;-61
2022/11/13 12:15:10;;;;;;;9.10;8.20;;;13.00;99.90;;;;;;4974085;28;20195;-61
2022/11/13 12:17:47;;;;;;;9.07;8.17;;;13.30;99.90;;;;;;5000376;28;20226;-61
2022/11/13 12:20:26;;;;;;;12.97;8.00;;;13.50;99.90;;;;;;4972540;28;20858;-61
2022/11/13 12:23:03;;;;;;;9.80;7.20;;;13.80;99.90;;;;;;5011900;28;20277;-61
2022/11/13 12:25:37;;;;;;;12.67;9.50;;;13.90;99.90;;;;;;4975077;28;20197;-61
2022/11/13 12:28:17;;;;;;;9.73;7.60;;;14.10;99.90;;;;;;4979256;28;20230;-61
2022/11/13 12:30:55;;;;;;;21.40;16.17;;;14.30;99.90;;;;;;4981944;28;20227;-61
2022/11/13 12:33:34;;;;;;;7.93;7.13;;;14.40;99.90;;;;;;4979602;28;20274;-61
2022/11/13 12:36:04;;;;;;;11.07;8.03;;;14.70;99.90;;;;;;4969630;28;20210;-61
2022/11/13 12:38:39;;;;;;;8.70;7.80;;;14.70;99.90;;;;;;4979528;28;20202;-61
2022/11/13 12:41:16;;;;;;;9.30;8.03;;;14.80;99.90;;;;;;4988765;28;20201;-61
2022/11/13 12:43:59;;;;;;;11.60;9.20;;;14.90;99.90;;;;;;4975069;28;20224;-61
2022/11/13 12:46:40;;;;;;;11.33;8.20;;;15.00;99.90;;;;;;4974455;28;20195;-61
2022/11/13 12:49:25;;;;;;;8.60;7.70;;;15.00;99.90;;;;;;4974382;28;20562;-61
2022/11/13 12:51:55;;;;;;;9.07;8.10;;;15.10;99.90;;;;;;4976332;28;20943;-61
2022/11/13 12:54:29;;;;;;;8.00;7.13;;;15.30;99.90;;;;;;5009875;28;20210;-61
2022/11/13 12:57:23;;;;;;;9.57;8.57;;;15.50;99.90;;;;;;4968117;28;20293;-61
2022/11/13 13:00:12;;;;;;;13.63;8.53;;;15.50;99.90;;;;;;4971182;28;20292;-61